sensor_id;sensor_type;location;lat;lon;timestamp;pressure;altitude;pressure_sealevel;temperature;humidity
32875;BME280;40468;42.128;24.750;2023-03-31T00:00:26;99777.47;;;10.56;38.84
32875;BME280;40468;42.128;24.750;2023-03-31T00:01:58;99775.88;;;10.53;38.62
32875;BME280;40468;42.128;24.750;2023-03-31T00:03:31;99781.16;;;10.52;38.86
32875;BME280;40468;42.128;24.750;2023-03-31T00:05:03;99778.63;;;10.50;39.12
32875;BME280;40468;42.128;24.750;2023-03-31T00:06:38;99669.91;;;9.78;38.84
32875;BME280;40468;42.128;24.750;2023-03-31T00:08:11;99769.94;;;10.50;39.16
32875;BME280;40468;42.128;24.750;2023-03-31T00:09:43;99770.03;;;10.48;39.32
32875;BME280;40468;42.128;24.750;2023-03-31T00:11:16;99769.41;;;10.43;39.40
32875;BME280;40468;42.128;24.750;2023-03-31T00:12:47;99767.84;;;10.39;39.56
32875;BME280;40468;42.128;24.750;2023-03-31T00:14:19;99772.28;;;10.37;39.52
32875;BME280;40468;42.128;24.750;2023-03-31T00:15:55;99771.50;;;10.35;39.56
32875;BME280;40468;42.128;24.750;2023-03-31T00:17:26;99764.66;;;10.32;39.75
32875;BME280;40468;42.128;24.750;2023-03-31T00:18:58;99763.81;;;10.32;39.76
32875;BME280;40468;42.128;24.750;2023-03-31T00:20:31;99764.75;;;10.31;39.89
32875;BME280;40468;42.128;24.750;2023-03-31T00:22:04;99760.31;;;10.33;39.73
32875;BME280;40468;42.128;24.750;2023-03-31T00:23:36;99768.19;;;10.31;39.89
32875;BME280;40468;42.128;24.750;2023-03-31T00:25:08;99762.91;;;10.33;39.77
32875;BME280;40468;42.128;24.750;2023-03-31T00:26:40;99762.28;;;10.26;39.77
32875;BME280;40468;42.128;24.750;2023-03-31T00:28:12;99759.97;;;10.20;39.89
32875;BME280;40468;42.128;24.750;2023-03-31T00:29:42;99769.50;;;10.21;39.84
32875;BME280;40468;42.128;24.750;2023-03-31T00:31:14;99765.25;;;10.18;40.08
32875;BME280;40468;42.128;24.750;2023-03-31T00:32:45;99764.56;;;10.15;40.14
32875;BME280;40468;42.128;24.750;2023-03-31T00:34:17;99759.47;;;10.12;40.05
32875;BME280;40468;42.128;24.750;2023-03-31T00:35:50;99763.75;;;10.13;40.33
32875;BME280;40468;42.128;24.750;2023-03-31T00:37:22;99762.94;;;10.12;40.18
32875;BME280;40468;42.128;24.750;2023-03-31T00:38:56;99756.94;;;10.10;40.35
32875;BME280;40468;42.128;24.750;2023-03-31T00:40:29;99762.13;;;10.10;40.26
32875;BME280;40468;42.128;24.750;2023-03-31T00:42:01;99762.94;;;10.12;40.44
32875;BME280;40468;42.128;24.750;2023-03-31T00:43:35;99758.47;;;10.14;40.41
32875;BME280;40468;42.128;24.750;2023-03-31T00:45:24;99750.81;;;10.11;40.38
32875;BME280;40468;42.128;24.750;2023-03-31T00:46:58;99746.63;;;10.09;40.63
32875;BME280;40468;42.128;24.750;2023-03-31T00:48:33;99750.88;;;10.10;40.81
32875;BME280;40468;42.128;24.750;2023-03-31T00:50:14;99739.66;;;10.09;40.71
32875;BME280;40468;42.128;24.750;2023-03-31T00:51:50;99726.91;;;10.03;40.68
32875;BME280;40468;42.128;24.750;2023-03-31T00:53:28;99742.28;;;10.08;40.96
32875;BME280;40468;42.128;24.750;2023-03-31T00:55:07;99729.50;;;10.03;40.77
32875;BME280;40468;42.128;24.750;2023-03-31T00:56:44;99738.16;;;10.03;41.01
32875;BME280;40468;42.128;24.750;2023-03-31T00:58:19;99669.16;;;9.55;40.92
32875;BME280;40468;42.128;24.750;2023-03-31T00:59:55;99745.25;;;10.00;41.00
32875;BME280;40468;42.128;24.750;2023-03-31T01:01:30;99742.78;;;9.97;41.26
32875;BME280;40468;42.128;24.750;2023-03-31T01:03:05;99742.00;;;9.95;41.37
32875;BME280;40468;42.128;24.750;2023-03-31T01:04:42;99736.09;;;9.91;41.20
32875;BME280;40468;42.128;24.750;2023-03-31T01:06:16;99732.63;;;9.91;41.43
32875;BME280;40468;42.128;24.750;2023-03-31T01:07:50;99735.31;;;9.89;41.62
32875;BME280;40468;42.128;24.750;2023-03-31T01:09:24;99736.72;;;9.76;41.55
32875;BME280;40468;42.128;24.750;2023-03-31T01:11:03;99739.53;;;9.71;41.61
32875;BME280;40468;42.128;24.750;2023-03-31T01:12:37;99742.97;;;9.72;41.82
32875;BME280;40468;42.128;24.750;2023-03-31T01:14:10;99740.47;;;9.70;41.99
32875;BME280;40468;42.128;24.750;2023-03-31T01:15:43;99674.53;;;9.30;42.01
32875;BME280;40468;42.128;24.750;2023-03-31T01:17:17;99745.66;;;9.70;41.86
32875;BME280;40468;42.128;24.750;2023-03-31T01:18:50;99749.94;;;9.71;42.05
32875;BME280;40468;42.128;24.750;2023-03-31T01:20:27;99749.03;;;9.72;42.11
32875;BME280;40468;42.128;24.750;2023-03-31T01:24:39;99748.25;;;9.70;42.04
32875;BME280;40468;42.128;24.750;2023-03-31T01:28:27;99748.25;;;9.70;42.23
32875;BME280;40468;42.128;24.750;2023-03-31T01:32:44;99749.03;;;9.72;42.37
32875;BME280;40468;42.128;24.750;2023-03-31T01:38:40;99744.59;;;9.74;42.32
32875;BME280;40468;42.128;24.750;2023-03-31T01:40:28;99683.78;;;9.38;42.41
32875;BME280;40468;42.128;24.750;2023-03-31T01:42:02;99740.38;;;9.72;42.26
32875;BME280;40468;42.128;24.750;2023-03-31T01:43:42;99736.84;;;9.73;42.31
32875;BME280;40468;42.128;24.750;2023-03-31T01:45:25;99728.44;;;9.68;42.55
32875;BME280;40468;42.128;24.750;2023-03-31T01:47:04;99724.34;;;9.62;42.42
32875;BME280;40468;42.128;24.750;2023-03-31T01:48:46;99719.00;;;9.65;42.48
32875;BME280;40468;42.128;24.750;2023-03-31T01:50:23;99721.66;;;9.64;42.69
32875;BME280;40468;42.128;24.750;2023-03-31T01:52:02;99728.63;;;9.63;42.71
32875;BME280;40468;42.128;24.750;2023-03-31T01:53:44;99727.69;;;9.64;42.69
32875;BME280;40468;42.128;24.750;2023-03-31T01:55:23;99732.00;;;9.65;42.64
32875;BME280;40468;42.128;24.750;2023-03-31T01:56:59;99724.50;;;9.57;42.67
32875;BME280;40468;42.128;24.750;2023-03-31T01:58:35;99716.13;;;9.51;42.58
32875;BME280;40468;42.128;24.750;2023-03-31T02:00:09;99718.06;;;9.46;42.86
32875;BME280;40468;42.128;24.750;2023-03-31T02:01:48;99714.72;;;9.44;42.89
32875;BME280;40468;42.128;24.750;2023-03-31T02:03:25;99714.84;;;9.41;42.93
32875;BME280;40468;42.128;24.750;2023-03-31T02:05:00;99713.97;;;9.40;43.04
32875;BME280;40468;42.128;24.750;2023-03-31T02:06:37;99717.56;;;9.38;43.12
32875;BME280;40468;42.128;24.750;2023-03-31T02:08:13;99716.69;;;9.37;42.90
32875;BME280;40468;42.128;24.750;2023-03-31T02:09:50;99704.81;;;9.31;43.00
32875;BME280;40468;42.128;24.750;2023-03-31T02:11:27;99707.78;;;9.22;43.02
32875;BME280;40468;42.128;24.750;2023-03-31T02:13:02;99707.16;;;9.17;43.13
32875;BME280;40468;42.128;24.750;2023-03-31T02:14:36;99624.47;;;8.64;43.36
32875;BME280;40468;42.128;24.750;2023-03-31T02:16:13;99689.78;;;8.97;43.24
32875;BME280;40468;42.128;24.750;2023-03-31T02:17:50;99700.06;;;8.99;43.36
32875;BME280;40468;42.128;24.750;2023-03-31T02:19:29;99593.16;;;8.23;43.49
32875;BME280;40468;42.128;24.750;2023-03-31T02:21:04;99705.59;;;8.91;43.54
32875;BME280;40468;42.128;24.750;2023-03-31T02:22:40;99705.72;;;8.88;43.78
32875;BME280;40468;42.128;24.750;2023-03-31T02:24:13;99699.81;;;8.84;43.65
32875;BME280;40468;42.128;24.750;2023-03-31T02:25:49;99704.13;;;8.84;43.76
32875;BME280;40468;42.128;24.750;2023-03-31T02:27:25;99702.50;;;8.81;43.82
32875;BME280;40468;42.128;24.750;2023-03-31T02:28:58;99704.44;;;8.76;43.60
32875;BME280;40468;42.128;24.750;2023-03-31T02:30:37;99698.53;;;8.73;43.55
32875;BME280;40468;42.128;24.750;2023-03-31T02:32:15;99695.19;;;8.69;43.82
32875;BME280;40468;42.128;24.750;2023-03-31T02:33:51;99702.34;;;8.64;43.69
32875;BME280;40468;42.128;24.750;2023-03-31T02:35:23;99702.38;;;8.62;43.81
32875;BME280;40468;42.128;24.750;2023-03-31T02:36:56;99697.38;;;8.58;44.04
32875;BME280;40468;42.128;24.750;2023-03-31T02:38:31;99699.13;;;8.57;44.10
32875;BME280;40468;42.128;24.750;2023-03-31T02:40:08;99703.47;;;8.57;44.16
32875;BME280;40468;42.128;24.750;2023-03-31T02:41:40;99703.47;;;8.57;44.10
32875;BME280;40468;42.128;24.750;2023-03-31T02:43:14;99707.78;;;8.58;44.23
32875;BME280;40468;42.128;24.750;2023-03-31T02:44:46;99706.06;;;8.57;44.39
32875;BME280;40468;42.128;24.750;2023-03-31T02:46:19;99703.47;;;8.57;44.21
32875;BME280;40468;42.128;24.750;2023-03-31T02:47:51;99705.19;;;8.58;44.24
32875;BME280;40468;42.128;24.750;2023-03-31T02:49:23;99705.22;;;8.56;44.27
32875;BME280;40468;42.128;24.750;2023-03-31T02:51:25;99702.88;;;8.50;44.21
32875;BME280;40468;42.128;24.750;2023-03-31T02:53:02;99709.72;;;8.51;44.27
32875;BME280;40468;42.128;24.750;2023-03-31T02:55:02;99708.09;;;8.49;44.44
32875;BME280;40468;42.128;24.750;2023-03-31T02:56:53;99697.94;;;8.42;44.45
32875;BME280;40468;42.128;24.750;2023-03-31T02:58:43;99695.19;;;8.47;44.69
32875;BME280;40468;42.128;24.750;2023-03-31T03:00:25;99703.78;;;8.49;44.70
32875;BME280;40468;42.128;24.750;2023-03-31T03:02:08;99702.19;;;8.45;44.86
32875;BME280;40468;42.128;24.750;2023-03-31T03:03:57;99706.50;;;8.46;45.02
32875;BME280;40468;42.128;24.750;2023-03-31T03:05:40;99709.94;;;8.47;44.93
32875;BME280;40468;42.128;24.750;2023-03-31T03:07:23;99708.09;;;8.49;45.09
32875;BME280;40468;42.128;24.750;2023-03-31T03:09:08;99701.22;;;8.48;45.05
32875;BME280;40468;42.128;24.750;2023-03-31T03:10:58;99708.91;;;8.51;44.86
32875;BME280;40468;42.128;24.750;2023-03-31T03:12:41;99719.16;;;8.54;45.00
32875;BME280;40468;42.128;24.750;2023-03-31T03:14:23;99722.47;;;8.57;45.08
32875;BME280;40468;42.128;24.750;2023-03-31T03:16:01;99724.09;;;8.60;44.96
32875;BME280;40468;42.128;24.750;2023-03-31T03:17:36;99726.59;;;8.63;44.87
32875;BME280;40468;42.128;24.750;2023-03-31T03:19:17;99718.78;;;8.63;44.85
32875;BME280;40468;42.128;24.750;2023-03-31T03:20:49;99723.88;;;8.66;44.62
32875;BME280;40468;42.128;24.750;2023-03-31T03:22:22;99722.13;;;8.66;44.77
32875;BME280;40468;42.128;24.750;2023-03-31T03:23:54;99730.69;;;8.69;44.71
32875;BME280;40468;42.128;24.750;2023-03-31T03:25:27;99728.09;;;8.69;44.63
32875;BME280;40468;42.128;24.750;2023-03-31T03:27:00;99732.47;;;8.68;44.78
32875;BME280;40468;42.128;24.750;2023-03-31T03:28:32;99729.84;;;8.68;44.70
32875;BME280;40468;42.128;24.750;2023-03-31T03:30:07;99736.81;;;8.68;44.91
32875;BME280;40468;42.128;24.750;2023-03-31T03:31:40;99731.66;;;8.66;44.64
32875;BME280;40468;42.128;24.750;2023-03-31T03:33:12;99732.63;;;8.63;44.89
32875;BME280;40468;42.128;24.750;2023-03-31T03:34:46;99732.56;;;8.65;44.96
32875;BME280;40468;42.128;24.750;2023-03-31T03:36:18;99733.50;;;8.64;44.99
32875;BME280;40468;42.128;24.750;2023-03-31T03:37:51;99736.09;;;8.64;44.70
32875;BME280;40468;42.128;24.750;2023-03-31T03:39:23;99737.09;;;8.60;45.01
32875;BME280;40468;42.128;24.750;2023-03-31T03:40:55;99739.75;;;8.58;44.95
32875;BME280;40468;42.128;24.750;2023-03-31T03:42:27;99738.84;;;8.59;44.84
32875;BME280;40468;42.128;24.750;2023-03-31T03:43:59;99744.88;;;8.60;44.99
32875;BME280;40468;42.128;24.750;2023-03-31T03:45:32;99738.81;;;8.61;44.92
32875;BME280;40468;42.128;24.750;2023-03-31T03:47:04;99735.41;;;8.59;44.82
32875;BME280;40468;42.128;24.750;2023-03-31T03:48:36;99738.00;;;8.59;44.92
32875;BME280;40468;42.128;24.750;2023-03-31T03:50:08;99724.19;;;8.58;45.08
32875;BME280;40468;42.128;24.750;2023-03-31T03:51:41;99738.84;;;8.59;44.99
32875;BME280;40468;42.128;24.750;2023-03-31T03:53:12;99723.28;;;8.59;45.00
32875;BME280;40468;42.128;24.750;2023-03-31T03:54:44;99720.78;;;8.56;45.05
32875;BME280;40468;42.128;24.750;2023-03-31T03:56:17;99724.31;;;8.55;45.00
32875;BME280;40468;42.128;24.750;2023-03-31T03:57:49;99727.84;;;8.53;45.26
32875;BME280;40468;42.128;24.750;2023-03-31T03:59:21;99736.53;;;8.52;44.96
32875;BME280;40468;42.128;24.750;2023-03-31T04:00:53;99728.75;;;8.52;45.18
32875;BME280;40468;42.128;24.750;2023-03-31T04:02:26;99733.28;;;8.47;45.13
32875;BME280;40468;42.128;24.750;2023-03-31T04:03:59;99726.44;;;8.44;45.00
32875;BME280;40468;42.128;24.750;2023-03-31T04:05:31;99736.75;;;8.46;45.05
32875;BME280;40468;42.128;24.750;2023-03-31T04:07:03;99733.28;;;8.47;45.13
32875;BME280;40468;42.128;24.750;2023-03-31T04:08:35;99730.69;;;8.47;45.05
32875;BME280;40468;42.128;24.750;2023-03-31T04:10:08;99732.38;;;8.48;44.97
32875;BME280;40468;42.128;24.750;2023-03-31T04:11:40;99730.69;;;8.47;45.05
32875;BME280;40468;42.128;24.750;2023-03-31T04:13:12;99712.03;;;8.35;44.95
32875;BME280;40468;42.128;24.750;2023-03-31T04:14:44;99724.69;;;8.45;44.98
32875;BME280;40468;42.128;24.750;2023-03-31T04:16:17;99728.09;;;8.47;44.90
32875;BME280;40468;42.128;24.750;2023-03-31T04:17:49;99725.63;;;8.43;44.97
32875;BME280;40468;42.128;24.750;2023-03-31T04:19:24;99716.19;;;8.41;45.15
32875;BME280;40468;42.128;24.750;2023-03-31T04:20:57;99708.50;;;8.38;45.12
32875;BME280;40468;42.128;24.750;2023-03-31T04:22:35;99714.56;;;8.37;45.16
32875;BME280;40468;42.128;24.750;2023-03-31T04:24:10;99703.41;;;8.35;45.16
32875;BME280;40468;42.128;24.750;2023-03-31T04:25:50;99706.00;;;8.35;45.08
32875;BME280;40468;42.128;24.750;2023-03-31T04:27:22;99716.38;;;8.35;45.17
32875;BME280;40468;42.128;24.750;2023-03-31T04:28:57;99700.88;;;8.33;45.16
32875;BME280;40468;42.128;24.750;2023-03-31T04:30:29;99697.28;;;8.37;45.10
32875;BME280;40468;42.128;24.750;2023-03-31T04:32:03;99704.09;;;8.40;45.07
32875;BME280;40468;42.128;24.750;2023-03-31T04:33:35;99700.63;;;8.41;45.02
32875;BME280;40468;42.128;24.750;2023-03-31T04:35:08;99697.09;;;8.42;44.91
32875;BME280;40468;42.128;24.750;2023-03-31T04:36:45;99695.34;;;8.42;45.03
32875;BME280;40468;42.128;24.750;2023-03-31T04:38:19;99692.53;;;8.49;44.97
32875;BME280;40468;42.128;24.750;2023-03-31T04:39:51;99702.03;;;8.50;44.90
32875;BME280;40468;42.128;24.750;2023-03-31T04:41:24;99694.16;;;8.51;44.93
32875;BME280;40468;42.128;24.750;2023-03-31T04:42:57;99703.53;;;8.55;45.21
32875;BME280;40468;42.128;24.750;2023-03-31T04:44:29;99702.50;;;8.59;45.15
32875;BME280;40468;42.128;24.750;2023-03-31T04:46:01;99694.66;;;8.61;45.05
32875;BME280;40468;42.128;24.750;2023-03-31T04:47:35;99710.97;;;8.64;44.99
32875;BME280;40468;42.128;24.750;2023-03-31T04:49:07;99704.84;;;8.65;44.77
32875;BME280;40468;42.128;24.750;2023-03-31T04:50:39;99704.69;;;8.70;44.95
32875;BME280;40468;42.128;24.750;2023-03-31T04:52:11;99700.22;;;8.74;45.00
32875;BME280;40468;42.128;24.750;2023-03-31T04:53:42;99703.50;;;8.79;44.96
32875;BME280;40468;42.128;24.750;2023-03-31T04:55:15;99704.22;;;8.82;44.69
32875;BME280;40468;42.128;24.750;2023-03-31T04:56:47;99702.28;;;8.87;44.73
32875;BME280;40468;42.128;24.750;2023-03-31T04:58:18;99692.66;;;8.89;44.62
32875;BME280;40468;42.128;24.750;2023-03-31T04:59:50;99687.28;;;8.94;44.53
32875;BME280;40468;42.128;24.750;2023-03-31T05:01:22;99686.34;;;8.97;44.35
32875;BME280;40468;42.128;24.750;2023-03-31T05:02:56;99685.28;;;9.01;43.99
32875;BME280;40468;42.128;24.750;2023-03-31T05:04:30;99672.38;;;8.99;44.07
32875;BME280;40468;42.128;24.750;2023-03-31T05:06:02;99686.78;;;9.06;43.88
32875;BME280;40468;42.128;24.750;2023-03-31T05:07:34;99685.03;;;9.07;43.88
32875;BME280;40468;42.128;24.750;2023-03-31T05:09:05;99681.47;;;9.09;43.77
32875;BME280;40468;42.128;24.750;2023-03-31T05:10:39;99680.56;;;9.10;43.66
32875;BME280;40468;42.128;24.750;2023-03-31T05:12:11;99666.69;;;9.11;43.56
32875;BME280;40468;42.128;24.750;2023-03-31T05:13:43;99659.72;;;9.12;43.60
32875;BME280;40468;42.128;24.750;2023-03-31T05:15:15;99647.75;;;9.08;43.45
32875;BME280;40468;42.128;24.750;2023-03-31T05:16:47;99645.69;;;9.16;43.45
32875;BME280;40468;42.128;24.750;2023-03-31T05:18:20;99645.63;;;9.18;43.46
32875;BME280;40468;42.128;24.750;2023-03-31T05:19:52;99644.72;;;9.19;43.18
32875;BME280;40468;42.128;24.750;2023-03-31T05:21:24;99642.97;;;9.19;43.47
32875;BME280;40468;42.128;24.750;2023-03-31T05:22:59;99629.97;;;9.19;43.16
32875;BME280;40468;42.128;24.750;2023-03-31T05:24:31;99640.22;;;9.22;42.92
32875;BME280;40468;42.128;24.750;2023-03-31T05:26:04;99641.94;;;9.23;43.05
32875;BME280;40468;42.128;24.750;2023-03-31T05:27:37;99646.41;;;9.20;43.18
32875;BME280;40468;42.128;24.750;2023-03-31T05:29:09;99647.25;;;9.20;42.96
32875;BME280;40468;42.128;24.750;2023-03-31T05:30:40;99634.06;;;9.25;43.23
32875;BME280;40468;42.128;24.750;2023-03-31T05:32:13;99636.53;;;9.28;43.21
32875;BME280;40468;42.128;24.750;2023-03-31T05:33:46;99633.81;;;9.31;42.96
32875;BME280;40468;42.128;24.750;2023-03-31T05:35:18;99644.91;;;9.34;42.86
32875;BME280;40468;42.128;24.750;2023-03-31T05:36:50;99634.50;;;9.34;42.91
32875;BME280;40468;42.128;24.750;2023-03-31T05:38:23;99637.91;;;9.37;42.71
32875;BME280;40468;42.128;24.750;2023-03-31T05:39:58;99632.69;;;9.37;42.78
32875;BME280;40468;42.128;24.750;2023-03-31T05:41:30;99639.53;;;9.39;42.87
32875;BME280;40468;42.128;24.750;2023-03-31T05:43:02;99629.06;;;9.41;42.88
32875;BME280;40468;42.128;24.750;2023-03-31T05:44:34;99624.59;;;9.44;42.58
32875;BME280;40468;42.128;24.750;2023-03-31T05:46:06;99623.53;;;9.48;42.73
32875;BME280;40468;42.128;24.750;2023-03-31T05:47:38;99626.84;;;9.52;42.56
32875;BME280;40468;42.128;24.750;2023-03-31T05:49:11;99631.00;;;9.56;42.65
32875;BME280;40468;42.128;24.750;2023-03-31T05:50:45;99626.50;;;9.60;42.60
32875;BME280;40468;42.128;24.750;2023-03-31T05:52:17;99627.22;;;9.63;42.39
32875;BME280;40468;42.128;24.750;2023-03-31T05:53:56;99629.81;;;9.63;42.25
32875;BME280;40468;42.128;24.750;2023-03-31T05:55:28;99629.69;;;9.66;42.11
32875;BME280;40468;42.128;24.750;2023-03-31T05:57:00;99629.63;;;9.68;42.06
32875;BME280;40468;42.128;24.750;2023-03-31T05:58:33;99621.75;;;9.69;42.24
32875;BME280;40468;42.128;24.750;2023-03-31T06:00:06;99627.78;;;9.70;42.28
32875;BME280;40468;42.128;24.750;2023-03-31T06:01:40;99624.19;;;9.72;42.24
32875;BME280;40468;42.128;24.750;2023-03-31T06:03:12;99617.09;;;9.76;42.07
32875;BME280;40468;42.128;24.750;2023-03-31T06:04:45;99615.22;;;9.79;42.28
32875;BME280;40468;42.128;24.750;2023-03-31T06:06:17;99614.44;;;9.77;42.18
32875;BME280;40468;42.128;24.750;2023-03-31T06:07:49;99615.16;;;9.81;42.02
32875;BME280;40468;42.128;24.750;2023-03-31T06:09:21;99614.03;;;9.87;41.89
32875;BME280;40468;42.128;24.750;2023-03-31T06:10:53;99602.69;;;9.88;41.81
32875;BME280;40468;42.128;24.750;2023-03-31T06:12:24;99604.91;;;9.97;42.07
32875;BME280;40468;42.128;24.750;2023-03-31T06:13:56;99486.19;;;9.20;41.61
32875;BME280;40468;42.128;24.750;2023-03-31T06:15:28;99608.91;;;10.04;41.63
32875;BME280;40468;42.128;24.750;2023-03-31T06:17:01;99614.03;;;10.06;41.80
32875;BME280;40468;42.128;24.750;2023-03-31T06:18:34;99622.41;;;10.12;41.90
32875;BME280;40468;42.128;24.750;2023-03-31T06:20:08;99619.13;;;10.09;41.84
32875;BME280;40468;42.128;24.750;2023-03-31T06:21:41;99627.69;;;10.11;41.97
32875;BME280;40468;42.128;24.750;2023-03-31T06:23:13;99623.31;;;10.11;42.28
32875;BME280;40468;42.128;24.750;2023-03-31T06:24:45;99619.03;;;10.10;42.29
32875;BME280;40468;42.128;24.750;2023-03-31T06:26:19;99618.06;;;10.13;42.56
32875;BME280;40468;42.128;24.750;2023-03-31T06:27:52;99621.50;;;10.13;42.56
32875;BME280;40468;42.128;24.750;2023-03-31T06:29:24;99617.34;;;10.09;42.76
32875;BME280;40468;42.128;24.750;2023-03-31T06:31:04;99612.44;;;10.03;42.93
32875;BME280;40468;42.128;24.750;2023-03-31T06:32:36;99612.78;;;9.95;43.14
32875;BME280;40468;42.128;24.750;2023-03-31T06:34:08;99609.31;;;9.76;43.61
32875;BME280;40468;42.128;24.750;2023-03-31T06:35:41;99613.81;;;9.72;43.67
32875;BME280;40468;42.128;24.750;2023-03-31T06:37:12;99614.91;;;9.67;43.84
32875;BME280;40468;42.128;24.750;2023-03-31T06:38:45;99605.44;;;9.66;44.21
32875;BME280;40468;42.128;24.750;2023-03-31T06:40:17;99611.34;;;9.69;43.97
32875;BME280;40468;42.128;24.750;2023-03-31T06:41:49;99597.63;;;9.66;44.10
32875;BME280;40468;42.128;24.750;2023-03-31T06:43:21;99615.56;;;9.72;44.44
32875;BME280;40468;42.128;24.750;2023-03-31T06:44:53;99606.00;;;9.72;44.52
32875;BME280;40468;42.128;24.750;2023-03-31T06:46:26;99610.59;;;9.67;44.68
32875;BME280;40468;42.128;24.750;2023-03-31T06:47:58;99611.44;;;9.68;44.94
32875;BME280;40468;42.128;24.750;2023-03-31T06:49:30;99603.69;;;9.66;44.70
32875;BME280;40468;42.128;24.750;2023-03-31T06:51:06;99598.19;;;9.72;44.85
32875;BME280;40468;42.128;24.750;2023-03-31T06:52:38;99525.50;;;9.31;44.77
32875;BME280;40468;42.128;24.750;2023-03-31T06:54:10;99596.06;;;9.82;44.49
32875;BME280;40468;42.128;24.750;2023-03-31T06:55:42;99594.06;;;9.87;44.78
32875;BME280;40468;42.128;24.750;2023-03-31T06:57:14;99590.47;;;9.90;44.64
32875;BME280;40468;42.128;24.750;2023-03-31T06:58:46;99598.28;;;9.90;44.98
32875;BME280;40468;42.128;24.750;2023-03-31T07:00:18;99593.78;;;9.93;44.95
32875;BME280;40468;42.128;24.750;2023-03-31T07:01:50;99594.50;;;9.97;45.17
32875;BME280;40468;42.128;24.750;2023-03-31T07:03:22;99596.09;;;9.99;45.20
32875;BME280;40468;42.128;24.750;2023-03-31T07:04:55;99587.53;;;9.97;45.13
32875;BME280;40468;42.128;24.750;2023-03-31T07:06:28;99452.41;;;9.20;45.39
32875;BME280;40468;42.128;24.750;2023-03-31T07:08:00;99579.50;;;10.02;45.06
32875;BME280;40468;42.128;24.750;2023-03-31T07:09:32;99577.41;;;10.10;45.08
32875;BME280;40468;42.128;24.750;2023-03-31T07:11:04;99576.19;;;10.17;45.16
32875;BME280;40468;42.128;24.750;2023-03-31T07:12:36;99583.31;;;10.33;44.89
32875;BME280;40468;42.128;24.750;2023-03-31T07:14:08;99588.22;;;10.39;44.93
32875;BME280;40468;42.128;24.750;2023-03-31T07:15:41;99584.56;;;10.43;45.23
32875;BME280;40468;42.128;24.750;2023-03-31T07:17:13;99587.69;;;10.50;45.13
32875;BME280;40468;42.128;24.750;2023-03-31T07:18:45;99585.44;;;10.61;44.80
32875;BME280;40468;42.128;24.750;2023-03-31T07:20:17;99586.69;;;10.71;44.92
32875;BME280;40468;42.128;24.750;2023-03-31T07:21:51;99582.91;;;10.94;44.48
32875;BME280;40468;42.128;24.750;2023-03-31T07:23:23;99586.34;;;11.29;43.94
32875;BME280;40468;42.128;24.750;2023-03-31T07:24:56;99589.56;;;11.68;43.32
32875;BME280;40468;42.128;24.750;2023-03-31T07:26:28;99586.03;;;12.02;42.79
32875;BME280;40468;42.128;24.750;2023-03-31T07:28:01;99515.28;;;11.75;42.13
32875;BME280;40468;42.128;24.750;2023-03-31T07:29:33;99587.59;;;12.36;42.09
32875;BME280;40468;42.128;24.750;2023-03-31T07:31:10;99564.31;;;12.47;41.47
32875;BME280;40468;42.128;24.750;2023-03-31T07:32:45;99581.53;;;12.82;41.14
32875;BME280;40468;42.128;24.750;2023-03-31T07:34:17;99576.00;;;13.02;40.88
32875;BME280;40468;42.128;24.750;2023-03-31T07:35:49;99580.38;;;13.16;40.52
32875;BME280;40468;42.128;24.750;2023-03-31T07:37:22;99583.25;;;13.27;40.14
32875;BME280;40468;42.128;24.750;2023-03-31T07:38:54;99590.47;;;13.38;39.70
32875;BME280;40468;42.128;24.750;2023-03-31T07:40:29;99586.66;;;13.58;39.73
32875;BME280;40468;42.128;24.750;2023-03-31T07:42:01;99575.97;;;13.75;39.29
32875;BME280;40468;42.128;24.750;2023-03-31T07:43:33;99587.72;;;14.11;38.98
32875;BME280;40468;42.128;24.750;2023-03-31T07:45:06;99580.59;;;14.40;38.84
32875;BME280;40468;42.128;24.750;2023-03-31T07:46:39;99581.56;;;14.66;37.88
32875;BME280;40468;42.128;24.750;2023-03-31T07:48:11;99586.53;;;14.84;37.82
32875;BME280;40468;42.128;24.750;2023-03-31T07:49:43;99582.19;;;15.10;37.40
32875;BME280;40468;42.128;24.750;2023-03-31T07:51:23;99582.63;;;15.42;37.06
32875;BME280;40468;42.128;24.750;2023-03-31T07:52:56;99579.97;;;15.67;36.35
32875;BME280;40468;42.128;24.750;2023-03-31T07:54:28;99576.09;;;15.86;36.16
32875;BME280;40468;42.128;24.750;2023-03-31T07:56:00;99572.69;;;16.09;35.71
32875;BME280;40468;42.128;24.750;2023-03-31T07:57:32;99566.47;;;16.34;35.70
32875;BME280;40468;42.128;24.750;2023-03-31T07:59:04;99567.41;;;16.57;35.03
32875;BME280;40468;42.128;24.750;2023-03-31T08:00:36;99566.91;;;16.76;34.77
32875;BME280;40468;42.128;24.750;2023-03-31T08:02:10;99563.88;;;16.94;34.45
32875;BME280;40468;42.128;24.750;2023-03-31T08:03:43;99562.38;;;17.14;34.18
32875;BME280;40468;42.128;24.750;2023-03-31T08:05:17;99561.91;;;17.31;33.99
32875;BME280;40468;42.128;24.750;2023-03-31T08:06:50;99549.00;;;17.39;33.68
32875;BME280;40468;42.128;24.750;2023-03-31T08:08:23;99552.09;;;17.56;33.63
32875;BME280;40468;42.128;24.750;2023-03-31T08:09:55;99553.66;;;17.69;33.20
32875;BME280;40468;42.128;24.750;2023-03-31T08:11:28;99544.00;;;17.81;33.10
32875;BME280;40468;42.128;24.750;2023-03-31T08:12:59;99538.56;;;17.94;32.85
32875;BME280;40468;42.128;24.750;2023-03-31T08:14:32;99525.13;;;18.08;32.53
32875;BME280;40468;42.128;24.750;2023-03-31T08:16:04;99528.56;;;18.31;32.46
32875;BME280;40468;42.128;24.750;2023-03-31T08:17:36;99513.38;;;18.45;32.12
32875;BME280;40468;42.128;24.750;2023-03-31T08:19:08;99514.75;;;18.60;31.98
32875;BME280;40468;42.128;24.750;2023-03-31T08:20:40;99515.75;;;18.80;31.79
32875;BME280;40468;42.128;24.750;2023-03-31T08:22:11;99505.91;;;19.03;31.45
32875;BME280;40468;42.128;24.750;2023-03-31T08:23:45;99502.59;;;19.31;31.38
32875;BME280;40468;42.128;24.750;2023-03-31T08:25:17;99502.13;;;19.57;30.96
32875;BME280;40468;42.128;24.750;2023-03-31T08:26:50;99492.19;;;19.70;30.54
32875;BME280;40468;42.128;24.750;2023-03-31T08:28:22;99495.56;;;19.82;30.38